createdAt,value
2017-02-28T00:00:45.616Z,981.9
2017-02-28T00:03:18.092Z,981.9
2017-02-28T00:05:50.586Z,982
2017-02-28T00:08:23.077Z,982.1
2017-02-28T00:10:55.567Z,982.1
2017-02-28T00:13:28.053Z,982
2017-02-28T00:16:00.529Z,981.9
2017-02-28T00:18:33.438Z,981.8
2017-02-28T00:21:05.937Z,981.7
2017-02-28T00:23:38.869Z,981.7
2017-02-28T00:26:11.337Z,981.6
2017-02-28T00:28:44.252Z,981.6
2017-02-28T00:31:17.169Z,981.5
2017-02-28T00:33:49.668Z,981.4
2017-02-28T00:36:22.171Z,981.4
2017-02-28T00:38:54.655Z,981.4
2017-02-28T00:41:27.567Z,981.5
2017-02-28T00:44:00.481Z,981.4
2017-02-28T00:46:32.985Z,981.4
2017-02-28T00:49:05.471Z,981.3
2017-02-28T00:51:37.948Z,981.3
2017-02-28T00:54:10.427Z,981.2
2017-02-28T00:56:42.920Z,981.3
2017-02-28T00:59:15.414Z,981.2
2017-02-28T01:01:47.899Z,981.3
2017-02-28T01:04:20.396Z,981.2
2017-02-28T01:06:53.197Z,981.2
2017-02-28T01:09:25.683Z,981.3
2017-02-28T01:11:58.171Z,981.3
2017-02-28T01:14:30.664Z,981.3
2017-02-28T01:17:03.167Z,981.3
2017-02-28T01:19:35.631Z,981.3
2017-02-28T01:22:08.127Z,981.5
2017-02-28T01:24:40.639Z,981.4
2017-02-28T01:27:13.127Z,981.2
2017-02-28T01:29:45.630Z,981.2
2017-02-28T01:32:18.143Z,981.2
2017-02-28T01:34:50.637Z,981.1
2017-02-28T01:37:23.129Z,981.1
2017-02-28T01:39:55.624Z,981.1
2017-02-28T01:42:28.106Z,981.2
2017-02-28T01:45:00.572Z,981.4
2017-02-28T01:47:33.066Z,981.6
2017-02-28T01:50:05.566Z,981.7
2017-02-28T01:52:38.061Z,981.6
2017-02-28T01:55:10.549Z,981.6
2017-02-28T01:57:43.008Z,981.7
2017-02-28T02:00:15.489Z,981.8
2017-02-28T02:02:47.977Z,981.6
2017-02-28T02:05:21.333Z,981.6
2017-02-28T02:07:53.822Z,981.5
2017-02-28T02:10:26.301Z,981.4
2017-02-28T02:12:58.782Z,981.5
2017-02-28T02:15:31.689Z,981.6
2017-02-28T02:18:04.179Z,981.6
2017-02-28T02:20:36.662Z,981.6
2017-02-28T02:23:09.144Z,981.5
2017-02-28T02:25:42.064Z,981.7
2017-02-28T02:28:14.550Z,981.7
2017-02-28T02:30:47.472Z,981.6
2017-02-28T02:33:19.973Z,981.3
2017-02-28T02:35:53.328Z,981.2
2017-02-28T02:38:26.230Z,981
2017-02-28T02:40:58.726Z,980.9
2017-02-28T02:43:31.222Z,980.8
2017-02-28T02:46:03.718Z,980.7
2017-02-28T02:48:36.206Z,980.6
2017-02-28T02:51:08.697Z,980.6
2017-02-28T02:53:41.641Z,980.6
2017-02-28T02:56:14.126Z,980.7
2017-02-28T02:58:46.612Z,980.9
2017-02-28T03:01:19.140Z,980.9
2017-02-28T03:03:51.620Z,981.1
2017-02-28T03:06:24.110Z,981.2
2017-02-28T03:08:56.599Z,981.3
2017-02-28T03:11:29.092Z,981.1
2017-02-28T03:14:01.575Z,981.1
2017-02-28T03:16:34.505Z,981.2
2017-02-28T03:19:06.982Z,981.2
2017-02-28T03:21:39.899Z,981.2
2017-02-28T03:24:12.405Z,981.3
2017-02-28T03:26:45.323Z,981.2
2017-02-28T03:29:17.793Z,981.3
2017-02-28T03:31:51.147Z,981.3
2017-02-28T03:34:23.631Z,981.4
2017-02-28T03:36:56.118Z,981.4
2017-02-28T03:39:28.596Z,981.3
2017-02-28T03:42:01.073Z,981.3
2017-02-28T03:44:33.559Z,981.3
2017-02-28T03:47:06.479Z,981.1
2017-02-28T03:49:38.963Z,981.3
2017-02-28T03:52:11.451Z,981.3
2017-02-28T03:54:43.955Z,981.3
2017-02-28T03:57:17.516Z,981.3
2017-02-28T03:59:50.434Z,981.2
2017-02-28T04:02:23.131Z,981.2
2017-02-28T04:04:55.614Z,981.1
2017-02-28T04:07:28.101Z,981.3
2017-02-28T04:10:00.587Z,981.3
2017-02-28T04:12:33.509Z,981.3
2017-02-28T04:15:05.993Z,981.3
2017-02-28T04:17:38.485Z,981.3
2017-02-28T04:20:11.825Z,981.3
2017-02-28T04:22:44.723Z,981.2
2017-02-28T04:25:17.225Z,981.3
2017-02-28T04:27:49.705Z,981.1
2017-02-28T04:30:22.213Z,981.1
2017-02-28T04:32:55.132Z,981.2
2017-02-28T04:35:28.474Z,981.2
2017-02-28T04:38:01.379Z,981.3
2017-02-28T04:40:33.876Z,981.4
2017-02-28T04:43:06.362Z,981.4
2017-02-28T04:45:38.861Z,981.4
2017-02-28T04:48:11.361Z,981.4
2017-02-28T04:50:43.844Z,981.4
2017-02-28T04:53:16.340Z,981.6
2017-02-28T04:55:48.833Z,981.6
2017-02-28T04:58:21.328Z,981.7
2017-02-28T05:00:53.839Z,981.6
2017-02-28T05:03:26.338Z,981.5
2017-02-28T05:05:58.826Z,981.6
2017-02-28T05:08:31.754Z,981.7
2017-02-28T05:11:04.236Z,981.8
2017-02-28T05:13:36.728Z,981.6
2017-02-28T05:16:09.240Z,981.4
2017-02-28T05:18:41.723Z,981.4
2017-02-28T05:21:14.198Z,981.4
2017-02-28T05:23:46.699Z,981.4
2017-02-28T05:26:19.197Z,981.4
2017-02-28T05:28:52.152Z,981.4
2017-02-28T05:31:24.651Z,981.6
2017-02-28T05:33:57.136Z,981.7
2017-02-28T05:36:29.624Z,981.8
2017-02-28T05:39:02.175Z,981.8
2017-02-28T05:41:35.517Z,981.9
2017-02-28T05:44:08.025Z,982
2017-02-28T05:46:40.938Z,982
2017-02-28T05:49:13.415Z,981.9
2017-02-28T05:51:46.333Z,981.9
2017-02-28T05:54:18.852Z,981.8
2017-02-28T05:56:52.182Z,981.7
2017-02-28T05:59:25.113Z,981.8
2017-02-28T06:01:57.605Z,981.9
2017-02-28T06:04:30.102Z,982
2017-02-28T06:07:02.588Z,982
2017-02-28T06:09:35.072Z,982
2017-02-28T06:12:07.973Z,982
2017-02-28T06:14:40.462Z,982.1
2017-02-28T06:17:12.940Z,982
2017-02-28T06:19:45.457Z,981.9
2017-02-28T06:22:17.964Z,981.9
2017-02-28T06:24:50.902Z,982
2017-02-28T06:27:23.410Z,982.1
2017-02-28T06:29:56.356Z,982
2017-02-28T06:32:28.865Z,982
2017-02-28T06:35:01.776Z,982
2017-02-28T06:37:34.708Z,982
2017-02-28T06:40:07.219Z,982
2017-02-28T06:42:40.440Z,982.2
2017-02-28T06:45:21.449Z,982.2
2017-02-28T06:47:54.539Z,982.2
2017-02-28T06:50:27.484Z,982.3
2017-02-28T06:52:59.985Z,982.3
2017-02-28T06:55:32.481Z,982.4
2017-02-28T06:58:05.381Z,982.5
2017-02-28T07:00:37.886Z,982.3
2017-02-28T07:03:10.793Z,982.4
2017-02-28T07:05:43.297Z,982.5
2017-02-28T07:08:15.792Z,982.6
2017-02-28T07:10:48.279Z,982.6
2017-02-28T07:13:20.786Z,982.6
2017-02-28T07:15:53.284Z,982.5
2017-02-28T07:18:25.759Z,982.5
2017-02-28T07:20:58.266Z,982.5
2017-02-28T07:23:31.158Z,982.6
2017-02-28T07:26:03.653Z,982.7
2017-02-28T07:28:36.164Z,982.7
2017-02-28T07:31:09.045Z,982.8
2017-02-28T07:33:41.521Z,982.8
2017-02-28T07:36:14.000Z,982.8
2017-02-28T07:38:46.477Z,982.9
2017-02-28T07:41:18.958Z,982.9
2017-02-28T07:43:51.457Z,982.9
2017-02-28T07:46:23.945Z,982.9
2017-02-28T07:48:56.857Z,982.9
2017-02-28T07:51:30.233Z,982.9
2017-02-28T07:54:03.138Z,982.9
2017-02-28T07:56:35.622Z,983.1
2017-02-28T07:59:08.138Z,983.1
2017-02-28T08:01:40.651Z,983.2
2017-02-28T08:04:13.131Z,983.2
2017-02-28T08:06:46.048Z,983.2
2017-02-28T08:09:18.558Z,983.3
2017-02-28T08:11:51.052Z,983.2
2017-02-28T08:14:23.564Z,983.2
2017-02-28T08:16:56.469Z,983.3
2017-02-28T08:19:28.954Z,983.3
2017-02-28T08:22:01.441Z,983.4
2017-02-28T08:24:33.932Z,983.3
2017-02-28T08:27:06.414Z,983.4
2017-02-28T08:29:38.877Z,983.3
2017-02-28T08:32:11.373Z,983.2
2017-02-28T08:34:44.298Z,983.2
2017-02-28T08:37:16.782Z,983.2
2017-02-28T08:39:49.293Z,983.2
2017-02-28T08:42:22.237Z,983.2
2017-02-28T08:44:55.182Z,983.1
2017-02-28T08:47:27.871Z,983.1
2017-02-28T08:50:00.355Z,983.1
2017-02-28T08:52:32.841Z,983.1
2017-02-28T08:55:05.364Z,983.1
2017-02-28T08:57:37.884Z,983
2017-02-28T09:00:10.386Z,983.1
2017-02-28T09:02:42.898Z,983.1
2017-02-28T09:05:15.374Z,983.1
2017-02-28T09:07:47.860Z,983.1
2017-02-28T09:10:20.576Z,983.2
2017-02-28T09:12:53.088Z,983.1
2017-02-28T09:15:25.597Z,983.1
2017-02-28T09:17:58.533Z,983.2
2017-02-28T09:20:31.017Z,983
2017-02-28T09:23:03.499Z,983.1
2017-02-28T09:25:36.421Z,983
2017-02-28T09:28:08.895Z,983
2017-02-28T09:30:41.391Z,983
2017-02-28T09:33:13.888Z,983
2017-02-28T09:35:46.383Z,983.1
2017-02-28T09:38:18.884Z,983.1
2017-02-28T09:40:51.381Z,983
2017-02-28T09:43:24.311Z,983
2017-02-28T09:45:56.826Z,983
2017-02-28T09:48:29.720Z,983.1
2017-02-28T09:51:02.212Z,982.9
2017-02-28T09:53:34.702Z,983
2017-02-28T09:56:07.201Z,983
2017-02-28T09:58:39.689Z,983
2017-02-28T10:01:12.182Z,982.9
2017-02-28T10:03:44.657Z,983
2017-02-28T10:06:17.155Z,982.8
2017-02-28T10:08:49.629Z,982.9
2017-02-28T10:11:22.114Z,982.9
2017-02-28T10:13:54.612Z,982.8
2017-02-28T10:16:27.109Z,982.8
2017-02-28T10:18:59.600Z,982.8
2017-02-28T10:21:32.076Z,982.7
2017-02-28T10:24:04.995Z,982.9
2017-02-28T10:26:37.505Z,982.9
2017-02-28T10:29:10.438Z,983
2017-02-28T10:31:42.949Z,983
2017-02-28T10:34:15.430Z,982.9
2017-02-28T10:36:48.361Z,982.9
2017-02-28T10:39:20.839Z,982.9
2017-02-28T10:41:53.340Z,982.9
2017-02-28T10:44:25.845Z,982.9
2017-02-28T10:46:58.761Z,982.9
2017-02-28T10:49:31.299Z,982.8
2017-02-28T10:52:03.797Z,982.9
2017-02-28T10:54:36.285Z,982.8
2017-02-28T10:57:08.775Z,983
2017-02-28T10:59:41.267Z,982.9
2017-02-28T11:02:13.752Z,982.8
2017-02-28T11:04:46.648Z,982.8
2017-02-28T11:07:19.142Z,982.8
2017-02-28T11:09:51.640Z,982.7
2017-02-28T11:12:24.535Z,982.7
2017-02-28T11:14:57.017Z,982.7
2017-02-28T11:17:29.510Z,982.6
2017-02-28T11:20:02.005Z,982.6
2017-02-28T11:22:34.928Z,982.6
2017-02-28T11:25:07.441Z,982.6
2017-02-28T11:27:39.937Z,982.5
2017-02-28T11:30:12.443Z,982.5
2017-02-28T11:32:44.940Z,982.5
2017-02-28T11:35:17.436Z,982.5
2017-02-28T11:37:49.918Z,982.5
2017-02-28T11:40:22.419Z,982.4
2017-02-28T11:42:54.933Z,982.5
2017-02-28T11:45:27.428Z,982.5
2017-02-28T11:47:59.944Z,982.5
2017-02-28T11:50:32.452Z,982.4
2017-02-28T11:53:04.954Z,982.5
2017-02-28T11:55:37.435Z,982.4
2017-02-28T11:58:09.931Z,982.4
2017-02-28T12:00:42.415Z,982.4
2017-02-28T12:03:14.913Z,982.4
2017-02-28T12:05:47.429Z,982.4
2017-02-28T12:08:19.939Z,982.4
2017-02-28T12:10:52.433Z,982.3
2017-02-28T12:13:24.931Z,982.3
2017-02-28T12:15:57.429Z,982.4
2017-02-28T12:18:29.931Z,982.3
2017-02-28T12:21:02.428Z,982.4
2017-02-28T12:23:34.919Z,982.4
2017-02-28T12:26:07.425Z,982.4
2017-02-28T12:28:39.937Z,982.4
2017-02-28T12:31:12.845Z,982.4
2017-02-28T12:33:45.348Z,982.4
2017-02-28T12:36:17.870Z,982.4
2017-02-28T12:38:50.350Z,982.4
2017-02-28T12:41:22.844Z,982.2
2017-02-28T12:43:55.340Z,982.4
2017-02-28T12:46:27.857Z,982.4
2017-02-28T12:49:00.368Z,982.4
2017-02-28T12:51:32.866Z,982.4
2017-02-28T12:54:05.355Z,982.4
2017-02-28T12:56:37.832Z,982.2
2017-02-28T12:59:10.525Z,982.2
2017-02-28T13:01:43.034Z,982.1
2017-02-28T13:04:15.959Z,982.1
2017-02-28T13:06:48.456Z,982.1
2017-02-28T13:09:20.939Z,982
2017-02-28T13:11:53.450Z,982
2017-02-28T13:14:25.947Z,982.1
2017-02-28T13:16:58.431Z,982
2017-02-28T13:19:30.919Z,982.1
2017-02-28T13:22:03.400Z,982.3
2017-02-28T13:24:35.904Z,982.1
2017-02-28T13:27:08.417Z,982.2
2017-02-28T13:29:40.903Z,982.2
2017-02-28T13:32:13.400Z,982.3
2017-02-28T13:34:45.891Z,982.2
2017-02-28T13:37:18.400Z,982.2
2017-02-28T13:39:50.889Z,982.1
2017-02-28T13:42:23.360Z,982.2
2017-02-28T13:44:55.853Z,982.1
2017-02-28T13:47:28.371Z,982.4
2017-02-28T13:50:00.855Z,982.5
2017-02-28T13:52:33.360Z,982.4
2017-02-28T13:55:05.850Z,982.4
2017-02-28T13:57:38.333Z,982.2
2017-02-28T14:00:10.809Z,982.3
2017-02-28T14:02:43.296Z,982.2
2017-02-28T14:05:15.799Z,982.2
2017-02-28T14:07:48.309Z,982.2
2017-02-28T14:10:20.799Z,982.1
2017-02-28T14:12:53.307Z,982.3
2017-02-28T14:15:25.800Z,982.4
2017-02-28T14:17:58.728Z,982.2
2017-02-28T14:20:31.223Z,982.1
2017-02-28T14:23:03.713Z,982.2
2017-02-28T14:25:36.607Z,982.2
2017-02-28T14:28:09.547Z,982.2
2017-02-28T14:30:42.046Z,982.1
2017-02-28T14:33:14.551Z,982.2
2017-02-28T14:35:47.048Z,982.1
2017-02-28T14:38:19.568Z,982.1
2017-02-28T14:40:52.060Z,982.1
2017-02-28T14:43:24.558Z,982.1
2017-02-28T14:45:57.043Z,982.1
2017-02-28T14:48:29.547Z,982
2017-02-28T14:51:02.047Z,982.1
2017-02-28T14:53:34.543Z,981.9
2017-02-28T14:56:07.036Z,982
2017-02-28T14:58:39.521Z,982.1
2017-02-28T15:01:12.035Z,982.1
2017-02-28T15:03:44.517Z,982.1
2017-02-28T15:06:17.424Z,982.2
2017-02-28T15:08:49.955Z,982.2
2017-02-28T15:11:22.456Z,982.2
2017-02-28T15:13:55.373Z,982.3
2017-02-28T15:16:27.883Z,982.2
2017-02-28T15:19:00.389Z,982.2
2017-02-28T15:21:32.881Z,982.2
2017-02-28T15:24:05.366Z,982.2
2017-02-28T15:26:38.274Z,982.1
2017-02-28T15:29:11.196Z,982.1
2017-02-28T15:31:43.736Z,982
2017-02-28T15:34:16.212Z,981.9
2017-02-28T15:36:48.706Z,982
2017-02-28T15:39:21.176Z,982
2017-02-28T15:41:54.090Z,982
2017-02-28T15:44:26.583Z,982
2017-02-28T15:46:59.068Z,982
2017-02-28T15:49:31.553Z,982.1
2017-02-28T15:52:04.114Z,982.1
2017-02-28T15:54:36.631Z,982.2
2017-02-28T15:57:09.168Z,982.3
2017-02-28T15:59:42.061Z,982.4
2017-02-28T16:02:14.542Z,982.4
2017-02-28T16:04:47.055Z,982.4
2017-02-28T16:07:19.545Z,982.5
2017-02-28T16:09:52.037Z,982.6
2017-02-28T16:12:25.143Z,982.6
2017-02-28T16:14:57.634Z,982.7
2017-02-28T16:17:30.154Z,982.6
2017-02-28T16:20:02.649Z,982.6
2017-02-28T16:22:35.142Z,982.6
2017-02-28T16:25:07.647Z,982.7
2017-02-28T16:27:40.152Z,982.7
2017-02-28T16:30:12.653Z,982.7
2017-02-28T16:32:45.144Z,982.7
2017-02-28T16:35:17.628Z,982.7
2017-02-28T16:37:50.120Z,982.7
2017-02-28T16:40:23.048Z,982.6
2017-02-28T16:42:55.963Z,982.7
2017-02-28T16:45:28.445Z,982.8
2017-02-28T16:48:00.969Z,982.8
2017-02-28T16:50:33.451Z,982.8
2017-02-28T16:53:06.584Z,982.9
2017-02-28T16:55:39.091Z,983
2017-02-28T16:58:12.018Z,983
2017-02-28T17:00:44.518Z,983
2017-02-28T17:03:17.015Z,983.1
2017-02-28T17:05:49.936Z,983.1
2017-02-28T17:08:22.443Z,983.2
2017-02-28T17:10:54.935Z,983.2
2017-02-28T17:13:27.420Z,983.2
2017-02-28T17:16:00.325Z,983.3
2017-02-28T17:18:32.808Z,983.2
2017-02-28T17:21:05.284Z,983.3
2017-02-28T17:23:37.786Z,983.3
2017-02-28T17:26:10.282Z,983.3
2017-02-28T17:28:42.778Z,983.2
2017-02-28T17:31:15.684Z,983.3
2017-02-28T17:33:48.169Z,983.3
2017-02-28T17:36:20.663Z,983.3
2017-02-28T17:38:53.160Z,983.3
2017-02-28T17:41:25.690Z,983.3
2017-02-28T17:43:58.188Z,983.3
2017-02-28T17:46:30.677Z,983.3
2017-02-28T17:49:03.171Z,983.3
2017-02-28T17:51:35.681Z,983.4
2017-02-28T17:54:08.156Z,983.3
2017-02-28T17:56:40.636Z,983.3
2017-02-28T17:59:13.131Z,983.3
2017-02-28T18:01:45.611Z,983.3
2017-02-28T18:04:18.095Z,983.3
2017-02-28T18:06:50.586Z,983.2
2017-02-28T18:09:23.070Z,983.2
2017-02-28T18:11:56.010Z,983.2
2017-02-28T18:14:28.509Z,983.2
2017-02-28T18:17:01.035Z,983.3
2017-02-28T18:19:33.528Z,983.2
2017-02-28T18:22:06.452Z,983.2
2017-02-28T18:24:38.931Z,983.2
2017-02-28T18:27:11.412Z,983.2
2017-02-28T18:29:43.908Z,983.2
2017-02-28T18:32:16.402Z,983.2
2017-02-28T18:34:48.896Z,983.2
2017-02-28T18:37:21.820Z,983.2
2017-02-28T18:39:54.316Z,983.1
2017-02-28T18:42:26.795Z,983.2
2017-02-28T18:44:59.291Z,983.2
2017-02-28T18:47:31.794Z,983.3
2017-02-28T18:50:04.285Z,983.3
2017-02-28T18:52:36.756Z,983.3
2017-02-28T18:55:09.696Z,983.3
2017-02-28T18:57:42.187Z,983.3
2017-02-28T19:00:14.669Z,983.3
2017-02-28T19:02:47.158Z,983.3
2017-02-28T19:05:19.649Z,983.3
2017-02-28T19:07:52.155Z,983.5
2017-02-28T19:10:25.057Z,983.4
2017-02-28T19:12:57.558Z,983.3
2017-02-28T19:15:30.455Z,983.3
2017-02-28T19:18:02.950Z,983.3
2017-02-28T19:20:35.452Z,983.3
2017-02-28T19:23:08.368Z,983.3
2017-02-28T19:25:40.857Z,983.3
2017-02-28T19:28:13.365Z,983.3
2017-02-28T19:30:45.867Z,983.3
2017-02-28T19:33:18.364Z,983.4
2017-02-28T19:35:50.847Z,983.4
2017-02-28T19:38:23.757Z,983.4
2017-02-28T19:40:56.688Z,983.5
2017-02-28T19:43:29.201Z,983.6
2017-02-28T19:46:01.676Z,983.6
2017-02-28T19:48:34.179Z,983.5
2017-02-28T19:51:06.672Z,983.5
2017-02-28T19:53:39.187Z,983.6
2017-02-28T19:56:12.117Z,983.9
2017-02-28T19:58:44.617Z,984
2017-02-28T20:01:17.125Z,983.8
2017-02-28T20:03:49.622Z,983.6
2017-02-28T20:06:22.122Z,983.7
2017-02-28T20:08:54.631Z,983.7
2017-02-28T20:11:27.132Z,983.7
2017-02-28T20:13:59.632Z,983.7
2017-02-28T20:16:32.124Z,983.7
2017-02-28T20:19:05.038Z,983.6
2017-02-28T20:21:37.587Z,983.6
2017-02-28T20:24:10.069Z,983.7
2017-02-28T20:26:42.570Z,983.6
2017-02-28T20:29:15.048Z,983.6
2017-02-28T20:31:47.543Z,983.7
2017-02-28T20:34:20.031Z,983.7
2017-02-28T20:36:52.525Z,983.7
2017-02-28T20:39:25.470Z,983.7
2017-02-28T20:41:58.392Z,983.8
2017-02-28T20:44:30.907Z,983.8
2017-02-28T20:47:03.399Z,983.8
2017-02-28T20:49:36.333Z,983.7
2017-02-28T20:52:09.274Z,983.7
2017-02-28T20:54:42.163Z,983.8
2017-02-28T20:57:14.655Z,983.8
2017-02-28T20:59:47.135Z,983.8
2017-02-28T21:02:19.630Z,983.9
2017-02-28T21:04:52.144Z,983.8
2017-02-28T21:07:24.658Z,983.8
2017-02-28T21:09:57.570Z,983.8
2017-02-28T21:12:30.079Z,983.8
2017-02-28T21:15:03.023Z,983.8
2017-02-28T21:17:35.955Z,983.8
2017-02-28T21:20:08.453Z,983.8
2017-02-28T21:22:40.944Z,983.8
2017-02-28T21:25:13.459Z,983.8
2017-02-28T21:27:45.955Z,983.8
2017-02-28T21:30:18.654Z,983.8
2017-02-28T21:32:51.144Z,983.8
2017-02-28T21:35:24.076Z,983.7
2017-02-28T21:37:57.009Z,983.8
2017-02-28T21:40:29.927Z,983.8
2017-02-28T21:43:03.284Z,983.8
2017-02-28T21:45:35.777Z,983.8
2017-02-28T21:48:08.295Z,983.8
2017-02-28T21:50:41.198Z,983.8
2017-02-28T21:53:13.681Z,983.9
2017-02-28T21:55:46.158Z,983.9
2017-02-28T21:58:18.659Z,983.9
2017-02-28T22:00:51.165Z,983.9
2017-02-28T22:03:23.671Z,983.9
2017-02-28T22:05:56.183Z,983.9
2017-02-28T22:08:28.887Z,983.9
2017-02-28T22:11:01.580Z,983.9
2017-02-28T22:13:34.075Z,984
2017-02-28T22:16:06.597Z,984
2017-02-28T22:18:39.516Z,984
2017-02-28T22:21:12.012Z,984
2017-02-28T22:23:44.526Z,984
2017-02-28T22:26:17.024Z,984.1
2017-02-28T22:28:49.502Z,984.1
2017-02-28T22:31:22.008Z,984.1
2017-02-28T22:33:54.500Z,984.1
2017-02-28T22:36:27.011Z,984.1
2017-02-28T22:38:59.532Z,984.2
2017-02-28T22:41:32.022Z,984.1
2017-02-28T22:44:04.547Z,984.1
2017-02-28T22:46:37.032Z,984.1
2017-02-28T22:49:10.206Z,984.1
2017-02-28T22:51:42.704Z,984.1
2017-02-28T22:54:15.201Z,984.1
2017-02-28T22:56:48.124Z,984.1
2017-02-28T22:59:20.611Z,984.2
2017-02-28T23:01:53.518Z,984.2
2017-02-28T23:04:26.007Z,984.2
2017-02-28T23:06:58.517Z,984.2
2017-02-28T23:09:31.014Z,984.2
2017-02-28T23:12:03.520Z,984.2
2017-02-28T23:14:36.014Z,984.3
2017-02-28T23:17:09.130Z,984.3
2017-02-28T23:19:41.619Z,984.3
2017-02-28T23:22:14.549Z,984.3
2017-02-28T23:24:47.070Z,984.4
2017-02-28T23:27:19.687Z,984.4
2017-02-28T23:29:52.806Z,984.4
2017-02-28T23:32:25.750Z,984.5
2017-02-28T23:34:58.274Z,984.6
2017-02-28T23:37:30.794Z,984.7
2017-02-28T23:40:03.300Z,984.7
2017-02-28T23:42:36.200Z,984.7
2017-02-28T23:45:08.741Z,984.7
2017-02-28T23:47:41.838Z,984.7
2017-02-28T23:50:14.954Z,984.8
2017-02-28T23:52:47.472Z,984.8
2017-02-28T23:55:20.410Z,984.8
2017-02-28T23:57:53.153Z,984.8
